createdAt,value
2019-02-04T00:01:03.739Z,49.95
2019-02-04T00:03:30.693Z,50.57
2019-02-04T00:05:57.728Z,50.69
2019-02-04T00:08:24.967Z,50.46
2019-02-04T00:10:51.922Z,49.81
2019-02-04T00:13:18.908Z,49.80
2019-02-04T00:15:45.853Z,49.79
2019-02-04T00:18:12.724Z,50.00
2019-02-04T00:20:39.736Z,50.19
2019-02-04T00:23:06.689Z,49.70
2019-02-04T00:25:34.131Z,49.95
2019-02-04T00:28:01.436Z,49.96
2019-02-04T00:30:28.417Z,49.88
2019-02-04T00:32:55.619Z,50.02
2019-02-04T00:35:22.885Z,49.36
2019-02-04T00:37:50.138Z,49.58
2019-02-04T00:40:17.097Z,49.73
2019-02-04T00:42:44.633Z,49.89
2019-02-04T00:45:11.517Z,49.63
2019-02-04T00:47:38.393Z,49.51
2019-02-04T00:50:05.393Z,48.96
2019-02-04T00:52:32.388Z,49.21
2019-02-04T00:54:59.681Z,49.30
2019-02-04T00:57:27.026Z,49.78
2019-02-04T00:59:54.023Z,49.92
2019-02-04T01:02:21.338Z,49.79
2019-02-04T01:04:48.317Z,50.24
2019-02-04T01:07:15.634Z,49.23
2019-02-04T01:09:42.599Z,49.43
2019-02-04T01:12:10.029Z,49.54
2019-02-04T01:14:36.960Z,49.27
2019-02-04T01:17:04.237Z,49.22
2019-02-04T01:19:31.585Z,49.49
2019-02-04T01:21:58.850Z,49.40
2019-02-04T01:24:26.087Z,49.77
2019-02-04T01:26:53.237Z,49.72
2019-02-04T01:29:20.505Z,49.13
2019-02-04T01:31:47.756Z,48.88
2019-02-04T01:34:15.302Z,47.95
2019-02-04T01:36:42.174Z,48.81
2019-02-04T01:39:09.073Z,49.22
2019-02-04T01:41:36.358Z,49.31
2019-02-04T01:44:03.753Z,49.04
2019-02-04T01:46:30.700Z,49.13
2019-02-04T01:48:58.699Z,48.85
2019-02-04T01:51:26.056Z,48.91
2019-02-04T01:53:53.348Z,49.23
2019-02-04T01:56:20.358Z,49.65
2019-02-04T01:58:47.631Z,49.52
2019-02-04T02:01:14.521Z,49.57
2019-02-04T02:03:41.393Z,49.78
2019-02-04T02:06:08.411Z,49.41
2019-02-04T02:08:35.709Z,49.53
2019-02-04T02:11:02.902Z,49.50
2019-02-04T02:13:29.832Z,49.51
2019-02-04T02:15:56.722Z,49.72
2019-02-04T02:18:23.925Z,49.76
2019-02-04T02:20:50.935Z,49.52
2019-02-04T02:23:17.880Z,49.52
2019-02-04T02:25:45.158Z,49.69
2019-02-04T02:28:12.425Z,49.82
2019-02-04T02:30:39.309Z,49.85
2019-02-04T02:33:06.241Z,49.90
2019-02-04T02:35:33.200Z,49.08
2019-02-04T02:38:00.516Z,49.37
2019-02-04T02:40:27.458Z,49.30
2019-02-04T02:42:54.742Z,49.10
2019-02-04T02:45:21.669Z,49.72
2019-02-04T02:47:48.649Z,49.87
2019-02-04T02:50:15.591Z,50.31
2019-02-04T02:52:42.546Z,50.46
2019-02-04T02:55:09.497Z,50.23
2019-02-04T02:57:36.461Z,50.07
2019-02-04T03:00:03.740Z,50.30
2019-02-04T03:02:33.140Z,50.58
2019-02-04T03:05:00.310Z,50.76
2019-02-04T03:07:27.642Z,50.29
2019-02-04T03:09:54.795Z,50.71
2019-02-04T03:12:21.796Z,51.09
2019-02-04T03:14:48.772Z,51.84
2019-02-04T03:17:15.754Z,51.59
2019-02-04T03:19:42.901Z,50.99
2019-02-04T03:22:10.137Z,51.25
2019-02-04T03:24:37.100Z,51.03
2019-02-04T03:27:04.027Z,51.43
2019-02-04T03:29:31.290Z,51.29
2019-02-04T03:31:58.270Z,51.87
2019-02-04T03:34:25.192Z,51.69
2019-02-04T03:36:52.382Z,51.45
2019-02-04T03:39:19.696Z,51.88
2019-02-04T03:41:46.664Z,51.33
2019-02-04T03:44:13.647Z,52.17
2019-02-04T03:46:41.027Z,52.01
2019-02-04T03:49:07.910Z,51.47
2019-02-04T03:51:34.866Z,51.58
2019-02-04T03:54:02.120Z,51.96
2019-02-04T03:56:29.176Z,52.42
2019-02-04T03:58:56.121Z,52.62
2019-02-04T04:01:23.049Z,52.23
2019-02-04T04:03:50.002Z,51.94
2019-02-04T04:06:17.434Z,51.25
2019-02-04T04:08:44.425Z,50.79
2019-02-04T04:11:11.409Z,51.16
2019-02-04T04:13:38.345Z,51.30
2019-02-04T04:16:05.314Z,51.43
2019-02-04T04:18:32.558Z,51.48
2019-02-04T04:21:00.794Z,51.96
2019-02-04T04:23:27.755Z,51.78
2019-02-04T04:25:55.037Z,51.71
2019-02-04T04:28:22.497Z,51.65
2019-02-04T04:30:49.432Z,51.58
2019-02-04T04:33:16.387Z,51.67
2019-02-04T04:35:43.353Z,52.01
2019-02-04T04:38:10.786Z,51.27
2019-02-04T04:40:37.776Z,51.62
2019-02-04T04:43:05.093Z,51.35
2019-02-04T04:45:32.341Z,51.92
2019-02-04T04:47:59.626Z,51.73
2019-02-04T04:50:26.604Z,50.82
2019-02-04T04:52:53.564Z,52.11
2019-02-04T04:55:20.818Z,53.91
2019-02-04T04:57:47.722Z,52.47
2019-02-04T05:00:15.034Z,53.07
2019-02-04T05:02:42.667Z,52.64
2019-02-04T05:05:09.692Z,53.22
2019-02-04T05:07:36.679Z,53.17
2019-02-04T05:10:03.610Z,53.84
2019-02-04T05:12:30.586Z,53.26
2019-02-04T05:14:57.830Z,53.11
2019-02-04T05:17:24.796Z,52.24
2019-02-04T05:19:52.461Z,52.50
2019-02-04T05:22:20.053Z,53.22
2019-02-04T05:24:46.993Z,52.35
2019-02-04T05:27:14.301Z,52.55
2019-02-04T05:29:41.551Z,52.09
2019-02-04T05:32:08.540Z,52.19
2019-02-04T05:34:35.582Z,51.34
2019-02-04T05:37:03.510Z,50.47
2019-02-04T05:39:30.411Z,50.56
2019-02-04T05:41:57.372Z,50.88
2019-02-04T05:44:24.381Z,51.58
2019-02-04T05:46:52.155Z,51.86
2019-02-04T05:49:19.181Z,51.33
2019-02-04T05:51:46.074Z,50.97
2019-02-04T05:54:13.360Z,51.10
2019-02-04T05:56:40.420Z,51.33
2019-02-04T05:59:07.840Z,50.74
2019-02-04T06:01:34.803Z,50.86
2019-02-04T06:04:01.751Z,50.77
2019-02-04T06:06:28.698Z,51.06
2019-02-04T06:08:55.972Z,50.81
2019-02-04T06:11:23.232Z,51.06
2019-02-04T06:13:50.208Z,51.16
2019-02-04T06:16:17.523Z,50.98
2019-02-04T06:18:44.806Z,51.07
2019-02-04T06:21:11.682Z,50.96
2019-02-04T06:23:38.793Z,50.92
2019-02-04T06:26:05.752Z,50.99
2019-02-04T06:28:33.086Z,51.20
2019-02-04T06:31:00.420Z,51.26
2019-02-04T06:33:27.841Z,51.14
2019-02-04T06:35:54.788Z,50.99
2019-02-04T06:38:21.744Z,50.75
2019-02-04T06:40:48.725Z,51.05
2019-02-04T06:43:15.968Z,50.85
2019-02-04T06:45:45.823Z,51.19
2019-02-04T06:48:11.480Z,51.13
2019-02-04T06:50:38.457Z,50.81
2019-02-04T06:53:05.398Z,50.99
2019-02-04T06:55:32.341Z,50.75
2019-02-04T06:57:59.481Z,50.44
2019-02-04T07:00:26.431Z,50.49
2019-02-04T07:02:53.329Z,49.93
2019-02-04T07:05:23.328Z,50.08
2019-02-04T07:07:50.757Z,50.05
2019-02-04T07:10:18.114Z,50.18
2019-02-04T07:12:45.077Z,50.11
2019-02-04T07:15:12.059Z,50.58
2019-02-04T07:17:39.020Z,50.06
2019-02-04T07:20:06.007Z,50.46
2019-02-04T07:22:33.440Z,49.83
2019-02-04T07:25:00.402Z,49.81
2019-02-04T07:27:29.190Z,49.19
2019-02-04T07:29:56.166Z,49.03
2019-02-04T07:32:23.112Z,48.49
2019-02-04T07:34:50.059Z,48.70
2019-02-04T07:37:17.363Z,47.84
2019-02-04T07:39:45.031Z,47.77
2019-02-04T07:42:11.998Z,48.29
2019-02-04T07:44:38.994Z,48.18
2019-02-04T07:47:06.370Z,48.26
2019-02-04T07:49:35.176Z,47.99
2019-02-04T07:52:01.928Z,47.39
2019-02-04T07:54:29.284Z,46.93
2019-02-04T07:56:56.652Z,47.59
2019-02-04T07:59:26.952Z,47.07
2019-02-04T08:01:58.103Z,47.44
2019-02-04T08:04:25.354Z,46.11
2019-02-04T08:06:52.304Z,47.43
2019-02-04T08:09:19.356Z,46.15
2019-02-04T08:11:46.359Z,45.65
2019-02-04T08:14:13.293Z,46.56
2019-02-04T08:16:40.201Z,47.03
2019-02-04T08:19:07.069Z,46.20
2019-02-04T08:21:33.980Z,45.93
2019-02-04T08:24:01.219Z,46.04
2019-02-04T08:26:28.686Z,45.44
2019-02-04T08:28:56.023Z,44.99
2019-02-04T08:31:23.605Z,44.99
2019-02-04T08:33:50.847Z,45.48
2019-02-04T08:36:17.811Z,45.92
2019-02-04T08:38:44.766Z,46.12
2019-02-04T08:41:12.078Z,45.56
2019-02-04T08:43:39.028Z,45.56
2019-02-04T08:46:06.299Z,45.71
2019-02-04T08:48:33.542Z,45.68
2019-02-04T08:51:00.494Z,45.43
2019-02-04T08:53:27.441Z,45.74
2019-02-04T08:55:54.424Z,45.45
2019-02-04T08:58:21.375Z,45.60
2019-02-04T09:00:48.757Z,45.61
2019-02-04T09:03:15.721Z,45.66
2019-02-04T09:05:42.650Z,45.24
2019-02-04T09:08:09.922Z,45.03
2019-02-04T09:10:37.191Z,44.84
2019-02-04T09:13:04.440Z,44.88
2019-02-04T09:15:31.442Z,44.24
2019-02-04T09:17:58.749Z,44.72
2019-02-04T09:20:27.106Z,44.82
2019-02-04T09:22:54.362Z,44.77
2019-02-04T09:25:21.343Z,45.06
2019-02-04T09:27:48.980Z,44.92
2019-02-04T09:30:15.927Z,44.74
2019-02-04T09:32:43.211Z,44.29
2019-02-04T09:35:10.733Z,44.72
2019-02-04T09:37:38.862Z,44.73
2019-02-04T09:40:05.820Z,44.39
2019-02-04T09:42:32.800Z,44.74
2019-02-04T09:44:59.948Z,44.70
2019-02-04T09:47:26.913Z,45.12
2019-02-04T09:49:54.248Z,45.28
2019-02-04T09:52:21.244Z,44.55
2019-02-04T09:54:48.289Z,44.45
2019-02-04T09:57:15.598Z,44.36
2019-02-04T09:59:45.572Z,44.15
2019-02-04T10:02:14.914Z,44.69
2019-02-04T10:04:41.869Z,44.43
2019-02-04T10:07:09.318Z,45.15
2019-02-04T10:09:36.263Z,44.57
2019-02-04T10:12:03.523Z,44.74
2019-02-04T10:14:30.551Z,44.83
2019-02-04T10:16:57.826Z,44.54
2019-02-04T10:19:25.208Z,44.73
2019-02-04T10:21:54.051Z,44.44
2019-02-04T10:24:21.609Z,44.37
2019-02-04T10:26:50.464Z,44.49
2019-02-04T10:29:17.634Z,44.82
2019-02-04T10:31:44.934Z,44.30
2019-02-04T10:34:14.169Z,44.31
2019-02-04T10:36:41.475Z,44.51
2019-02-04T10:39:08.448Z,44.33
2019-02-04T10:41:36.216Z,44.48
2019-02-04T10:44:03.216Z,44.15
2019-02-04T10:46:30.603Z,44.72
2019-02-04T10:48:57.550Z,44.56
2019-02-04T10:51:24.511Z,44.93
2019-02-04T10:53:51.760Z,44.87
2019-02-04T10:56:18.854Z,44.82
2019-02-04T10:58:46.182Z,45.00
2019-02-04T11:01:13.170Z,45.15
2019-02-04T11:03:41.078Z,44.88
2019-02-04T11:06:08.162Z,44.97
2019-02-04T11:08:35.587Z,45.14
2019-02-04T11:11:02.981Z,45.07
2019-02-04T11:13:29.921Z,45.52
2019-02-04T11:15:57.282Z,45.56
2019-02-04T11:18:24.203Z,45.14
2019-02-04T11:20:58.244Z,44.94
2019-02-04T11:23:19.801Z,45.14
2019-02-04T11:25:47.163Z,45.02
2019-02-04T11:28:14.576Z,45.52
2019-02-04T11:30:41.770Z,45.64
2019-02-04T11:33:10.066Z,46.83
2019-02-04T11:35:37.063Z,47.14
2019-02-04T11:38:04.356Z,47.58
2019-02-04T11:40:31.700Z,46.95
2019-02-04T11:42:58.698Z,46.47
2019-02-04T11:45:26.451Z,47.27
2019-02-04T11:47:53.388Z,45.93
2019-02-04T11:50:20.353Z,47.01
2019-02-04T11:52:47.321Z,45.74
2019-02-04T11:55:14.283Z,45.95
2019-02-04T11:57:41.650Z,45.63
2019-02-04T12:00:08.720Z,46.06
2019-02-04T12:02:36.376Z,45.84
2019-02-04T12:05:03.744Z,46.24
2019-02-04T12:07:30.658Z,45.86
2019-02-04T12:09:57.999Z,45.44
2019-02-04T12:12:25.010Z,45.29
2019-02-04T12:14:51.897Z,45.36
2019-02-04T12:17:18.793Z,45.41
2019-02-04T12:19:46.186Z,45.49
2019-02-04T12:22:13.325Z,44.97
2019-02-04T12:24:40.229Z,44.86
2019-02-04T12:27:07.553Z,44.31
2019-02-04T12:29:35.924Z,44.51
2019-02-04T12:32:03.218Z,44.17
2019-02-04T12:34:30.434Z,43.75
2019-02-04T12:36:57.679Z,44.25
2019-02-04T12:39:24.829Z,43.76
2019-02-04T12:41:52.126Z,43.79
2019-02-04T12:44:19.374Z,43.86
2019-02-04T12:46:46.590Z,43.89
2019-02-04T12:49:13.737Z,43.50
2019-02-04T12:51:40.683Z,43.30
2019-02-04T12:54:07.633Z,43.53
2019-02-04T12:56:35.226Z,42.99
2019-02-04T12:59:02.222Z,43.34
2019-02-04T13:01:29.168Z,43.26
2019-02-04T13:03:56.542Z,42.92
2019-02-04T13:06:23.513Z,43.36
2019-02-04T13:08:50.645Z,41.89
2019-02-04T13:11:17.560Z,42.05
2019-02-04T13:13:44.536Z,42.38
2019-02-04T13:16:11.464Z,42.30
2019-02-04T13:18:38.338Z,42.28
2019-02-04T13:21:05.319Z,42.00
2019-02-04T13:23:32.273Z,41.28
2019-02-04T13:25:59.561Z,41.37
2019-02-04T13:28:26.453Z,41.21
2019-02-04T13:30:53.757Z,41.11
2019-02-04T13:33:21.343Z,40.90
2019-02-04T13:35:48.333Z,40.48
2019-02-04T13:38:15.633Z,40.90
2019-02-04T13:40:44.468Z,40.99
2019-02-04T13:43:11.885Z,41.56
2019-02-04T13:45:38.864Z,41.16
2019-02-04T13:48:08.408Z,40.65
2019-02-04T13:50:34.793Z,41.28
2019-02-04T13:53:01.760Z,41.36
2019-02-04T13:55:29.066Z,41.29
2019-02-04T13:57:56.039Z,41.75
2019-02-04T14:00:23.272Z,41.05
2019-02-04T14:02:58.809Z,41.07
2019-02-04T14:05:19.898Z,41.08
2019-02-04T14:07:46.934Z,40.77
2019-02-04T14:10:13.857Z,40.53
2019-02-04T14:12:40.804Z,40.93
2019-02-04T14:15:07.791Z,40.83
2019-02-04T14:17:34.793Z,40.74
2019-02-04T14:20:01.826Z,40.64
2019-02-04T14:22:29.946Z,40.64
2019-02-04T14:24:56.922Z,40.82
2019-02-04T14:27:23.900Z,41.20
2019-02-04T14:29:50.864Z,40.27
2019-02-04T14:32:18.276Z,40.37
2019-02-04T14:34:45.511Z,40.33
2019-02-04T14:37:12.394Z,40.53
2019-02-04T14:39:39.767Z,40.36
2019-02-04T14:42:06.697Z,40.76
2019-02-04T14:44:33.670Z,41.08
2019-02-04T14:47:00.827Z,40.55
2019-02-04T14:49:27.844Z,41.24
2019-02-04T14:51:54.749Z,40.90
2019-02-04T14:54:21.994Z,40.79
2019-02-04T14:56:49.457Z,40.08
2019-02-04T14:59:16.437Z,41.10
2019-02-04T15:01:43.773Z,41.25
2019-02-04T15:04:12.134Z,41.75
2019-02-04T15:06:39.121Z,42.33
2019-02-04T15:09:06.441Z,41.71
2019-02-04T15:11:34.406Z,41.25
2019-02-04T15:14:01.302Z,42.06
2019-02-04T15:16:28.255Z,42.40
2019-02-04T15:18:55.570Z,42.71
2019-02-04T15:21:22.504Z,43.15
2019-02-04T15:23:49.861Z,43.49
2019-02-04T15:26:16.824Z,43.01
2019-02-04T15:28:45.463Z,43.89
2019-02-04T15:31:12.467Z,43.84
2019-02-04T15:33:39.800Z,44.37
2019-02-04T15:36:07.034Z,44.54
2019-02-04T15:38:34.186Z,45.47
2019-02-04T15:41:01.080Z,46.21
2019-02-04T15:43:28.125Z,45.57
2019-02-04T15:45:55.084Z,45.48
2019-02-04T15:48:22.041Z,45.96
2019-02-04T15:50:49.379Z,45.75
2019-02-04T15:53:16.263Z,46.31
2019-02-04T15:55:43.245Z,46.28
2019-02-04T15:58:10.318Z,46.54
2019-02-04T16:00:37.335Z,47.70
2019-02-04T16:03:04.981Z,47.41
2019-02-04T16:05:31.926Z,46.59
2019-02-04T16:07:59.184Z,46.88
2019-02-04T16:10:26.465Z,47.16
2019-02-04T16:12:53.397Z,47.68
2019-02-04T16:15:20.353Z,48.35
2019-02-04T16:17:47.355Z,50.06
2019-02-04T16:20:14.846Z,50.31
2019-02-04T16:22:41.843Z,49.57
2019-02-04T16:25:09.051Z,49.32
2019-02-04T16:27:36.415Z,49.06
2019-02-04T16:30:03.731Z,49.61
2019-02-04T16:32:31.054Z,48.02
2019-02-04T16:34:58.244Z,48.46
2019-02-04T16:37:25.230Z,49.27
2019-02-04T16:39:52.749Z,49.49
2019-02-04T16:42:19.629Z,50.08
2019-02-04T16:44:49.656Z,51.23
2019-02-04T16:47:16.958Z,51.25
2019-02-04T16:49:43.933Z,51.33
2019-02-04T16:52:10.985Z,50.89
2019-02-04T16:54:37.957Z,50.64
2019-02-04T16:57:04.891Z,49.41
2019-02-04T16:59:32.252Z,49.41
2019-02-04T17:01:59.580Z,49.83
2019-02-04T17:04:26.830Z,50.56
2019-02-04T17:06:54.118Z,50.34
2019-02-04T17:09:21.025Z,50.14
2019-02-04T17:11:48.262Z,49.76
2019-02-04T17:14:15.616Z,48.61
2019-02-04T17:16:42.608Z,47.83
2019-02-04T17:19:09.577Z,46.92
2019-02-04T17:21:36.553Z,46.94
2019-02-04T17:24:03.497Z,47.74
2019-02-04T17:26:30.869Z,48.78
2019-02-04T17:28:58.007Z,48.31
2019-02-04T17:31:25.708Z,48.48
2019-02-04T17:33:53.756Z,47.69
2019-02-04T17:36:20.704Z,46.98
2019-02-04T17:38:48.021Z,46.88
2019-02-04T17:41:15.012Z,47.00
2019-02-04T17:43:42.484Z,47.22
2019-02-04T17:46:09.423Z,47.12
2019-02-04T17:48:36.642Z,47.21
2019-02-04T17:51:04.982Z,47.65
2019-02-04T17:53:34.207Z,47.31
2019-02-04T17:56:00.545Z,47.53
2019-02-04T17:58:27.434Z,46.92
2019-02-04T18:00:54.389Z,46.98
2019-02-04T18:03:21.443Z,46.70
2019-02-04T18:05:57.449Z,48.11
2019-02-04T18:08:33.227Z,47.93
2019-02-04T18:11:00.523Z,49.02
2019-02-04T18:13:27.487Z,49.15
2019-02-04T18:15:54.446Z,49.37
2019-02-04T18:18:22.767Z,49.26
2019-02-04T18:20:50.138Z,49.54
2019-02-04T18:23:18.265Z,49.08
2019-02-04T18:25:45.237Z,48.78
2019-02-04T18:28:12.509Z,48.53
2019-02-04T18:30:39.794Z,48.61
2019-02-04T18:33:07.150Z,48.26
2019-02-04T18:35:38.878Z,49.77
2019-02-04T18:38:06.069Z,50.84
2019-02-04T18:40:36.219Z,49.99
2019-02-04T18:43:04.361Z,50.00
2019-02-04T18:45:31.339Z,52.06
2019-02-04T18:47:58.400Z,50.84
2019-02-04T18:50:25.884Z,52.12
2019-02-04T18:52:53.145Z,52.08
2019-02-04T18:55:20.071Z,51.71
2019-02-04T18:57:47.087Z,51.59
2019-02-04T19:00:14.414Z,51.92
2019-02-04T19:02:41.432Z,51.23
2019-02-04T19:05:08.401Z,51.71
2019-02-04T19:07:35.754Z,51.09
2019-02-04T19:10:02.796Z,51.56
2019-02-04T19:12:30.287Z,51.04
2019-02-04T19:14:57.562Z,50.91
2019-02-04T19:17:24.910Z,50.20
2019-02-04T19:19:55.517Z,50.67
2019-02-04T19:22:22.482Z,51.71
2019-02-04T19:24:49.922Z,50.66
2019-02-04T19:27:17.099Z,50.15
2019-02-04T19:29:44.550Z,49.73
2019-02-04T19:32:18.223Z,49.26
2019-02-04T19:34:45.245Z,49.71
2019-02-04T19:37:12.566Z,49.47
2019-02-04T19:39:39.916Z,49.48
2019-02-04T19:42:07.273Z,49.68
2019-02-04T19:44:34.751Z,48.51
2019-02-04T19:47:01.723Z,48.35
2019-02-04T19:49:28.675Z,48.83
2019-02-04T19:51:56.162Z,49.03
2019-02-04T19:54:23.206Z,49.42
2019-02-04T19:56:50.282Z,50.14
2019-02-04T19:59:21.255Z,49.99
2019-02-04T20:01:48.561Z,49.63
2019-02-04T20:04:15.618Z,50.25
2019-02-04T20:06:42.577Z,50.45
2019-02-04T20:09:11.049Z,50.32
2019-02-04T20:11:38.602Z,50.63
2019-02-04T20:14:05.975Z,51.04
2019-02-04T20:16:33.349Z,50.26
2019-02-04T20:19:00.855Z,50.84
2019-02-04T20:21:28.887Z,49.93
2019-02-04T20:23:55.860Z,50.47
2019-02-04T20:26:23.222Z,51.01
2019-02-04T20:28:50.224Z,50.57
2019-02-04T20:31:17.204Z,50.84
2019-02-04T20:33:44.719Z,50.80
2019-02-04T20:36:11.700Z,50.61
2019-02-04T20:38:40.574Z,50.79
2019-02-04T20:41:07.541Z,51.51
2019-02-04T20:43:34.826Z,51.33
2019-02-04T20:46:02.209Z,51.15
2019-02-04T20:48:29.156Z,50.23
2019-02-04T20:50:56.478Z,52.01
2019-02-04T20:53:24.996Z,51.32
2019-02-04T20:55:51.942Z,51.84
2019-02-04T20:58:19.008Z,51.05
2019-02-04T21:00:46.296Z,50.92
2019-02-04T21:03:14.429Z,51.08
2019-02-04T21:05:41.449Z,50.88
2019-02-04T21:08:08.425Z,50.50
2019-02-04T21:10:35.875Z,50.37
2019-02-04T21:13:03.227Z,50.33
2019-02-04T21:15:30.204Z,50.47
2019-02-04T21:17:57.508Z,51.33
2019-02-04T21:20:25.840Z,51.00
2019-02-04T21:22:52.801Z,50.08
2019-02-04T21:25:19.765Z,50.04
2019-02-04T21:27:47.624Z,50.40
2019-02-04T21:30:14.817Z,51.09
2019-02-04T21:32:43.486Z,49.67
2019-02-04T21:35:10.459Z,49.95
2019-02-04T21:37:37.671Z,50.42
2019-02-04T21:40:05.438Z,50.79
2019-02-04T21:42:32.447Z,50.38
2019-02-04T21:45:01.049Z,50.51
2019-02-04T21:47:28.385Z,50.11
2019-02-04T21:49:55.773Z,49.78
2019-02-04T21:52:23.118Z,50.45
2019-02-04T21:54:50.019Z,50.83
2019-02-04T21:57:16.975Z,51.23
2019-02-04T21:59:44.010Z,51.13
2019-02-04T22:02:10.964Z,51.42
2019-02-04T22:04:38.455Z,51.69
2019-02-04T22:07:05.706Z,52.58
2019-02-04T22:09:33.738Z,51.97
2019-02-04T22:12:00.700Z,51.98
2019-02-04T22:14:27.986Z,52.17
2019-02-04T22:16:55.241Z,50.99
2019-02-04T22:19:22.168Z,51.62
2019-02-04T22:21:49.130Z,52.29
2019-02-04T22:24:16.290Z,51.62
2019-02-04T22:26:43.265Z,50.60
2019-02-04T22:29:10.612Z,50.31
2019-02-04T22:31:37.937Z,50.28
2019-02-04T22:34:05.092Z,50.06
2019-02-04T22:36:32.341Z,50.73
2019-02-04T22:38:59.601Z,50.77
2019-02-04T22:41:28.294Z,49.89
2019-02-04T22:43:56.699Z,49.01
2019-02-04T22:46:23.670Z,50.00
2019-02-04T22:48:50.965Z,50.05
2019-02-04T22:51:18.230Z,49.39
2019-02-04T22:53:45.173Z,49.47
2019-02-04T22:56:12.079Z,50.05
2019-02-04T22:58:39.669Z,50.67
2019-02-04T23:01:06.625Z,49.59
2019-02-04T23:03:34.176Z,49.75
2019-02-04T23:06:02.426Z,49.76
2019-02-04T23:08:29.361Z,49.75
2019-02-04T23:10:56.318Z,50.06
2019-02-04T23:13:23.196Z,49.82
2019-02-04T23:15:53.888Z,49.11
2019-02-04T23:18:19.433Z,49.43
2019-02-04T23:20:46.692Z,49.22
2019-02-04T23:23:13.626Z,49.36
2019-02-04T23:25:43.346Z,49.16
2019-02-04T23:28:09.279Z,49.84
2019-02-04T23:30:36.265Z,49.95
2019-02-04T23:33:03.535Z,48.80
2019-02-04T23:35:30.492Z,47.74
2019-02-04T23:37:57.447Z,48.22
2019-02-04T23:40:24.312Z,48.28
2019-02-04T23:42:51.242Z,48.74
2019-02-04T23:45:18.503Z,48.72
2019-02-04T23:47:45.457Z,49.15
2019-02-04T23:50:13.867Z,48.90
2019-02-04T23:52:40.844Z,48.86
2019-02-04T23:55:07.824Z,48.64
2019-02-04T23:57:35.211Z,48.68
